CheckWX is a tool to help pilots better visualize weather data.  It is not intended as a substitute for an official pre-flight weather briefing.

13:29:19 UTC

KSTC TAF
St Cloud Regional Airport
St Cloud, Minnesota, USA
KSTC 201244Z 2013/2112 20006KT P6SM VCSH BKN040 TEMPO 2013/2015 35015G25KT 3/4SM -TSRAGR BKN010CB FM201600 28009KT P6SM OVC025 FM202000 32009G17KT P6SM BKN035 FM202300 33008KT P6SM SKC

Aug-20@
13:00 UTC

Aug-20 @ 13:00 UTC

Aug-20@
16:00 UTC

Aug-20 @ 16:00 UTC

KSTC 201244Z 2013/2112 20006KT P6SM VCSH BKN040
Wind
  • 200° at 6 KTS
Cloud Levels
  • Broken at 4,000' AGL

Aug-20@
13:00 UTC

Aug-20 @ 13:00 UTC

Aug-20@
15:00 UTC

Aug-20 @ 15:00 UTC

TEMPO 2013/2015 35015G25KT 3/4SM -TSRAGR BKN010CB

Temporary

Temporary Changes expected for less than half the time period

Wind
  • 350° at 15 KTS
  • {Gusting to 25 KTS
Conditions
Light Thunderstorm, Light Rain, Light Thunderstorm, Light Hail
Cloud Levels
  • Broken at 1,000' AGL

Aug-20@
16:00 UTC

Aug-20 @ 16:00 UTC

Aug-20@
20:00 UTC

Aug-20 @ 20:00 UTC

FM201600 28009KT P6SM OVC025

From

From Standard forecast or significant change

Wind
  • 280° at 9 KTS
Cloud Levels
  • Overcast at 2,500' AGL

Aug-20@
20:00 UTC

Aug-20 @ 20:00 UTC

Aug-20@
23:00 UTC

Aug-20 @ 23:00 UTC

FM202000 32009G17KT P6SM BKN035

From

From Standard forecast or significant change

Wind
  • 320° at 9 KTS
  • {Gusting to 17 KTS
Cloud Levels
  • Broken at 3,500' AGL

Aug-20@
23:00 UTC

Aug-20 @ 23:00 UTC

Aug-21@
12:00 UTC

Aug-21 @ 12:00 UTC

FM202300 33008KT P6SM SKC

From

From Standard forecast or significant change

Wind
  • 330° at 8 KTS
Cloud Levels
  • Clear skies